Latest Weather Observations for Samuel Hill

IDQ60801

Issued at 12:43 am EST Wednesday 24 April 2019 (issued every 10 minutes, with the page automatically refreshed every 10 minutes)

About weather observations | Map of weather stations | Latest weather observations for QLD | Other Formats
Station Details ID: 033308 Name: SAMUEL HILL AERO Lat: -22.74 Lon: 150.66 Height: 31.0 m
Data from the previous 72 hours. | See also: Recent months at Samuel Hill
Date/Time
EST
Temp
°C
App
Temp
°C
Dew
Point
°C
Rel
Hum
%
Delta-T
°C
Wind Press
QNH
hPa
Press
MSL
hPa
Rain since
9am
mm
Dir  Spd
km/h
Gust
km/h
Spd
kts
Gust
kts
24/12:30am 22.9 26.0 21.5 92 0.9 SSE 7 11 4 6 1016.6 1016.5 3.6
24/12:27am 23.0 26.2 21.6 92 0.9 SSE 7 11 4 6 1016.7 1016.6 3.6
24/12:11am 23.1 25.5 21.5 91 1.1 ESE 11 17 6 9 1016.8 1016.7 3.6
24/12:00am 23.0 24.8 21.1 89 1.2 SE 13 17 7 9 1016.9 1016.8 2.8
 
Date/Time
EST
Temp
°C
App
Temp
°C
Dew
Point
°C
Rel
Hum
%
Delta-T
°C
Wind Press
QNH
hPa
Press
MSL
hPa
Rain since
9am
mm
Dir  Spd
km/h
Gust
km/h
Spd
kts
Gust
kts
23/11:30pm 23.5 25.5 21.6 89 1.3 ESE 13 19 7 10 1017.1 1017.0 2.8
23/11:00pm 23.3 25.2 21.4 89 1.2 ESE 13 20 7 11 1017.4 1017.3 2.8
23/10:30pm 23.8 25.2 21.1 85 1.8 SE 15 24 8 13 1017.5 1017.4 2.4
23/10:00pm 24.0 25.5 21.3 85 1.8 SE 15 26 8 14 1017.6 1017.5 2.4
23/09:30pm 24.2 25.5 20.9 82 2.2 SE 15 22 8 12 1017.7 1017.6 2.2
23/09:00pm 23.4 25.5 20.9 86 1.6 SSE 11 19 6 10 1017.7 1017.6 2.2
23/08:30pm 23.9 25.5 20.8 83 2.0 SE 13 19 7 10 1017.7 1017.6 2.2
23/08:00pm 24.3 25.4 20.4 79 2.5 ESE 15 24 8 13 1017.6 1017.5 2.2
23/07:30pm 24.4 25.6 20.7 80 2.4 SE 15 24 8 13 1017.2 1017.1 2.2
23/07:00pm 24.0 25.2 20.7 82 2.2 SE 15 20 8 11 1017.0 1016.9 2.2
23/06:30pm 24.0 25.3 20.1 79 2.5 ESE 13 20 7 11 1016.8 1016.7 2.2
23/06:00pm 23.7 25.2 20.6 83 2.0 ESE 13 20 7 11 1016.6 1016.5 2.2
23/05:30pm 24.4 26.0 20.7 80 2.4 SE 13 19 7 10 1016.9 1016.8 2.2
23/05:00pm 24.6 25.7 21.3 82 2.2 SE 17 24 9 13 1016.6 1016.5 2.2
23/04:30pm 24.8 25.7 20.9 79 2.6 SE 17 24 9 13 1016.5 1016.4 2.0
23/04:00pm 25.2 25.6 20.7 76 2.9 ESE 19 26 10 14 1016.2 1016.1 2.0
23/03:30pm 26.5 27.3 20.6 70 3.9 ESE 17 30 9 16 1016.0 1015.9 2.0
23/03:00pm 26.0 26.1 20.3 71 3.7 ESE 20 32 11 17 1016.0 1015.9 2.0
23/02:30pm 27.2 27.6 21.0 69 4.1 ESE 20 30 11 16 1016.0 1015.9 2.0
23/02:00pm 26.7 27.4 21.5 73 3.5 ESE 20 33 11 18 1016.2 1016.1 2.0
23/01:30pm 24.4 24.9 21.1 82 2.2 ESE 20 32 11 17 1016.7 1016.6 2.0
23/01:00pm 25.9 25.9 20.2 71 3.7 ESE 20 30 11 16 1016.9 1016.8 2.0
23/12:30pm 25.8 26.1 20.8 74 3.3 SE 20 32 11 17 1017.2 1017.1 1.8
23/12:00pm 26.2 26.4 20.5 71 3.7 ESE 20 28 11 15 1017.5 1017.4 1.8
23/11:30am 25.7 26.0 20.7 74 3.3 ESE 20 37 11 20 1017.7 1017.6 1.8
23/11:00am 24.7 26.5 22.6 88 1.4 SE 17 24 9 13 1018.0 1017.9 1.8
23/10:51am 24.3 26.2 22.0 87 1.5 SE 15 24 8 13 1018.1 1018.0 1.8
23/10:36am 23.9 24.8 21.6 87 1.5 SE 19 30 10 16 1018.3 1018.2 0.6
23/10:34am 24.0 24.9 21.5 86 1.7 SE 19 30 10 16 1018.3 1018.2 0.6
23/10:30am 24.6 26.3 21.7 84 1.9 SE 15 26 8 14 1018.3 1018.2 0.2
23/10:12am 24.3 25.6 21.6 85 1.8 SE 17 28 9 15 1018.5 1018.4 0.2
23/10:00am 24.5 26.5 22.2 87 1.5 SE 15 26 8 14 1018.7 1018.6 0.0
23/09:58am 24.5 26.5 22.2 87 1.5 SE 15 20 8 11 1018.7 1018.6 0.0
23/09:30am 24.3 26.9 22.7 91 1.1 SE 13 24 7 13 1018.8 1018.7 0.0
23/09:11am 24.0 26.7 22.8 93 0.8 SE 13 24 7 13 1018.8 1018.7 0.0
23/09:00am 24.0 26.8 23.0 94 0.7 SE 13 20 7 11 1018.8 1018.7 11.6
23/08:52am 23.5 25.4 22.1 92 0.9 SE 15 22 8 12 1018.6 1018.5 11.4
23/08:30am 23.9 26.4 22.5 92 0.9 SE 13 20 7 11 1018.4 1018.3 10.0
23/08:00am 23.0 25.4 22.2 95 0.5 SE 13 22 7 12 1018.3 1018.2 10.0
23/07:30am 22.9 25.9 22.6 98 0.2 SSE 11 19 6 10 1018.2 1018.1 10.0
23/07:00am 22.4 24.7 22.1 98 0.2 SE 13 22 7 12 1018.1 1018.0 10.0
23/06:59am 22.4 24.7 22.1 98 0.2 SE 13 22 7 12 1018.0 1017.9 10.0
23/06:30am 22.3 24.9 22.0 98 0.2 SE 11 20 6 11 1017.6 1017.5 9.4
23/06:00am 22.3 24.8 21.8 97 0.3 SE 11 24 6 13 1017.1 1017.0 7.8
23/05:52am 22.3 24.5 21.8 97 0.3 SSE 13 20 7 11 1017.0 1016.9 7.4
23/05:30am 22.2 24.3 21.7 97 0.3 SSE 13 32 7 17 1016.8 1016.7 7.0
23/05:00am 22.2 24.3 21.7 97 0.3 SE 13 19 7 10 1016.6 1016.5 7.0
23/04:30am 22.1 24.8 21.4 96 0.5 SE 9 17 5 9 1016.5 1016.4 6.8
23/04:05am 22.0 24.7 21.3 96 0.5 ESE 9 15 5 8 1016.5 1016.4 6.8
23/04:00am 22.0 25.0 21.3 96 0.5 SE 7 15 4 8 1016.4 1016.3 6.8
23/03:44am 21.9 24.3 20.9 94 0.7 SSE 9 15 5 8 1016.4 1016.3 6.6
23/03:30am 21.9 23.9 20.7 93 0.8 SSE 11 17 6 9 1016.4 1016.3 6.2
23/03:16am 21.7 23.5 20.3 92 0.9 SE 11 17 6 9 1016.5 1016.4 6.2
23/03:00am 21.6 23.5 19.7 89 1.2 SSE 9 15 5 8 1016.6 1016.5 6.2
23/02:30am 22.0 23.6 19.2 84 1.8 SSE 9 17 5 9 1016.8 1016.7 6.2
23/02:00am 22.9 23.5 19.5 81 2.2 SE 15 24 8 13 1016.7 1016.6 6.2
23/01:30am 23.0 24.3 19.4 80 2.3 SE 11 19 6 10 1017.0 1016.9 6.2
23/01:00am 23.0 24.0 19.4 80 2.3 SE 13 19 7 10 1017.3 1017.2 6.2
23/12:30am 22.9 24.4 19.7 82 2.1 SE 11 15 6 8 1017.7 1017.6 6.2
23/12:00am 23.0 24.6 20.0 83 1.9 SE 11 19 6 10 1017.7 1017.6 6.2
 
Date/Time
EST
Temp
°C
App
Temp
°C
Dew
Point
°C
Rel
Hum
%
Delta-T
°C
Wind Press
QNH
hPa
Press
MSL
hPa
Rain since
9am
mm
Dir  Spd
km/h
Gust
km/h
Spd
kts
Gust
kts
22/11:30pm 23.3 24.6 20.1 82 2.1 SE 13 19 7 10 1017.9 1017.8 6.0
22/11:00pm 23.2 24.0 19.8 81 2.2 SE 15 26 8 14 1018.0 1017.9 6.0
22/10:30pm 23.2 23.8 20.3 84 1.9 ESE 17 26 9 14 1018.1 1018.0 6.0
22/10:00pm 23.4 24.8 19.5 79 2.5 SE 11 19 6 10 1018.1 1018.0 6.0
22/09:30pm 23.2 25.3 20.2 83 1.9 SE 9 13 5 7 1018.1 1018.0 6.0
22/09:00pm 23.4 24.6 20.0 81 2.2 SE 13 19 7 10 1018.2 1018.1 6.0
22/08:30pm 23.3 25.5 20.4 84 1.9 SE 9 13 5 7 1018.1 1018.0 6.0
22/08:00pm 23.1 25.2 20.2 84 1.9 SSE 9 11 5 6 1018.0 1017.9 6.0
22/07:30pm 23.4 25.2 20.3 83 2.0 SE 11 15 6 8 1017.7 1017.6 6.0
22/07:00pm 23.1 25.7 20.4 85 1.7 SE 7 11 4 6 1017.3 1017.2 6.0
22/06:30pm 23.1 25.3 20.4 85 1.8 SE 9 13 5 7 1016.9 1016.8 6.0
22/06:00pm 23.4 25.0 20.7 85 1.8 SE 13 20 7 11 1016.7 1016.6 6.0
22/05:30pm 23.4 24.5 20.5 84 1.9 SE 15 20 8 11 1016.2 1016.1 6.0
22/05:00pm 24.0 26.1 20.9 83 2.0 ESE 11 19 6 10 1016.0 1015.9 6.0
22/04:30pm 23.7 25.9 21.2 86 1.6 ESE 11 15 6 8 1015.8 1015.7 6.0
22/04:00pm 24.3 27.2 22.4 89 1.3 SE 11 15 6 8 1015.7 1015.6 5.8
22/03:30pm 23.1 25.8 21.4 90 1.1 E 9 20 5 11 1015.7 1015.6 5.8
22/03:14pm 22.8 25.5 21.3 91 1.0 SSE 9 13 5 7 1015.6 1015.5 5.8
22/03:00pm 22.7 23.2 20.8 89 1.2 SSE 19 35 10 19 1015.6 1015.5 5.8
22/02:56pm 22.7 23.4 20.4 87 1.5 SSE 17 35 9 19 1015.6 1015.5 5.8
22/02:45pm 23.4 25.4 21.5 89 1.3 SSE 13 20 7 11 1015.6 1015.5 5.2
22/02:30pm 22.9 23.5 21.0 89 1.2 SE 19 32 10 17 1015.6 1015.5 5.0
22/02:29pm 23.1 23.8 21.2 89 1.2 SE 19 32 10 17 1015.6 1015.5 5.0
22/02:24pm 23.2 23.9 20.5 85 1.8 SE 17 32 9 17 1015.6 1015.5 4.8
22/02:11pm 23.7 24.5 20.6 83 2.0 SE 17 24 9 13 1015.6 1015.5 4.6
22/02:00pm 25.1 25.3 20.6 76 2.9 SE 20 37 11 20 1015.4 1015.3 3.8
22/01:30pm 25.2 25.5 20.7 76 3.0 ESE 20 39 11 21 1015.5 1015.4 3.8
22/01:00pm 26.5 26.8 20.3 68 4.1 ESE 19 32 10 17 1015.6 1015.5 3.8
22/12:30pm 25.5 25.8 20.5 74 3.3 SE 19 32 10 17 1015.8 1015.7 3.8
22/12:00pm 25.6 26.7 21.9 80 2.5 SE 19 32 10 17 1016.2 1016.1 3.8
22/11:46am 24.8 25.7 21.5 82 2.2 ESE 19 30 10 16 1016.3 1016.2 3.8
22/11:30am 23.7 25.2 21.2 86 1.6 SE 15 24 8 13 1016.6 1016.5 3.8
22/11:25am 23.8 24.7 20.9 84 1.9 SE 17 24 9 13 1016.9 1016.8 2.2
22/11:00am 25.0 26.1 21.3 80 2.4 SE 17 28 9 15 1017.0 1016.9 0.2
22/10:30am 24.1 24.4 20.8 82 2.2 SSE 20 33 11 18 1017.3 1017.2 0.2
22/10:00am 25.1 25.2 20.4 75 3.1 SE 20 32 11 17 1017.5 1017.4 0.0
22/09:46am 25.3 24.9 20.1 73 3.4 SE 22 32 12 17 1017.6 1017.5 0.0
22/09:30am 25.5 26.2 20.5 74 3.3 SE 17 30 9 16 1017.6 1017.5 0.0
22/09:00am 23.7 25.0 20.8 84 1.9 SSE 15 22 8 12 1017.5 1017.4 2.2
22/08:53am 23.5 24.8 20.8 85 1.8 SSE 15 24 8 13 1017.5 1017.4 2.2
22/08:44am 23.6 24.5 20.9 85 1.8 SSE 17 24 9 13 1017.3 1017.2 2.2
22/08:30am 23.2 23.9 20.5 85 1.8 SE 17 24 9 13 1017.0 1016.9 2.2
22/08:00am 22.5 24.6 21.0 91 1.0 SE 11 17 6 9 1016.7 1016.6 2.2
22/07:48am 22.3 24.6 20.6 90 1.1 SE 9 15 5 8 1016.6 1016.5 2.2
22/07:37am 22.3 23.6 20.8 91 1.0 SSE 15 24 8 13 1016.6 1016.5 2.2
22/07:30am 22.2 23.3 20.5 90 1.1 SSE 15 24 8 13 1016.4 1016.3 2.2
22/07:00am 22.1 24.0 20.6 91 1.0 SE 11 17 6 9 1016.3 1016.2 2.2
22/06:30am 21.9 23.8 20.5 92 0.9 SE 11 19 6 10 1016.0 1015.9 2.2
22/06:00am 22.1 24.6 20.2 89 1.2 ESE 7 13 4 7 1015.8 1015.7 2.2
22/05:51am 22.2 24.0 20.3 89 1.2 SE 11 19 6 10 1015.8 1015.7 2.2
22/05:49am 22.2 23.6 20.3 89 1.2 SE 13 19 7 10 1015.7 1015.6 2.2
22/05:30am 22.2 23.6 20.3 89 1.2 SSE 13 20 7 11 1015.6 1015.5 2.2
22/05:00am 22.2 24.0 20.3 89 1.2 SE 11 20 6 11 1015.2 1015.1 2.2
22/04:30am 22.6 24.1 20.5 88 1.4 SE 13 20 7 11 1015.2 1015.1 2.2
22/04:22am 22.6 24.1 20.5 88 1.4 SE 13 22 7 12 1015.2 1015.1 2.2
22/04:00am 22.6 23.7 20.5 88 1.4 SE 15 22 8 12 1015.0 1014.9 2.2
22/03:30am 22.5 24.4 20.6 89 1.2 SE 11 20 6 11 1015.0 1014.9 2.2
22/03:00am 22.4 23.9 20.5 89 1.2 ESE 13 20 7 11 1015.1 1015.0 2.2
22/02:30am 22.1 23.7 20.7 92 0.9 SE 13 24 7 13 1015.2 1015.1 2.2
22/02:26am 22.1 23.3 20.7 92 0.9 SE 15 24 8 13 1015.3 1015.2 2.2
22/02:22am 22.1 23.7 20.7 92 0.9 SE 13 22 7 12 1015.4 1015.3 2.2
22/02:00am 22.3 23.2 20.9 92 0.9 SE 17 24 9 13 1015.7 1015.6 2.0
22/01:30am 22.2 24.7 21.0 93 0.8 SE 9 19 5 10 1015.9 1015.8 2.0
22/01:19am 22.2 24.2 20.8 92 0.9 SE 11 17 6 9 1016.0 1015.9 2.0
22/01:04am 22.4 23.2 20.7 90 1.1 SE 17 28 9 15 1016.3 1016.2 1.8
22/01:00am 22.6 24.2 20.7 89 1.2 SE 13 24 7 13 1016.4 1016.3 1.6
22/12:45am 22.6 24.1 20.5 88 1.4 SE 13 22 7 12 1016.4 1016.3 1.4
22/12:30am 22.5 23.1 20.2 87 1.5 SE 17 28 9 15 1016.7 1016.6 1.4
22/12:00am 23.3 24.0 20.4 84 1.9 SE 17 24 9 13 1016.9 1016.8 1.4
 
Date/Time
EST
Temp
°C
App
Temp
°C
Dew
Point
°C
Rel
Hum
%
Delta-T
°C
Wind Press
QNH
hPa
Press
MSL
hPa
Rain since
9am
mm
Dir  Spd
km/h
Gust
km/h
Spd
kts
Gust
kts
21/11:30pm 23.1 24.3 20.6 86 1.6 SE 15 24 8 13 1017.1 1017.0 1.4
21/11:00pm 23.9 25.3 20.4 81 2.3 SE 13 19 7 10 1017.1 1017.0 1.2
21/10:30pm 23.9 24.3 20.6 82 2.2 SE 19 26 10 14 1017.2 1017.1 1.2
21/10:00pm 23.9 24.1 20.6 82 2.1 SE 20 43 11 23 1017.2 1017.1 1.2
21/09:30pm 23.9 24.0 20.0 79 2.5 SE 19 28 10 15 1017.3 1017.2 1.2
21/09:00pm 23.8 24.3 20.1 80 2.4 SE 17 24 9 13 1016.9 1016.8 1.2
21/08:30pm 23.5 23.0 19.2 77 2.7 SE 20 35 11 19 1017.1 1017.0 1.2
21/08:00pm 23.5 25.0 20.6 84 1.9 SE 13 20 7 11 1016.7 1016.6 1.2
21/07:30pm 23.0 23.8 19.8 82 2.1 SSE 15 28 8 15 1016.1 1016.0 1.2
21/07:00pm 23.8 23.5 20.3 81 2.3 SE 22 39 12 21 1015.7 1015.6 1.2
21/06:30pm 24.0 24.3 20.5 81 2.3 SE 19 32 10 17 1015.6 1015.5 1.2
21/06:00pm 23.7 24.7 21.0 85 1.8 SE 17 26 9 14 1015.5 1015.4 1.0
21/05:30pm 23.0 24.2 20.7 87 1.5 SE 15 22 8 12 1015.2 1015.1 1.0
21/05:21pm 23.0 23.7 20.5 86 1.6 SE 17 28 9 15 1015.1 1015.0 1.0
21/05:10pm 23.5 23.7 20.6 84 1.9 SE 20 33 11 18 1015.0 1014.9 1.0
21/05:00pm 24.6 25.0 20.9 80 2.4 SE 20 33 11 18 1014.6 1014.4 0.4
21/04:30pm 25.1 24.7 21.0 78 2.7 SE 24 35 13 19 1014.4 1014.2 0.4
21/04:00pm 25.7 26.2 21.1 76 3.0 SE 20 35 11 19 1014.2 1014.0 0.4
21/03:30pm 25.5 24.9 21.2 77 2.8 SE 26 41 14 22 1014.2 1014.0 0.4
21/03:00pm 24.7 25.5 21.4 82 2.2 SE 19 33 10 18 1014.3 1014.1 0.4
21/02:30pm 26.2 26.6 21.0 73 3.4 ESE 20 32 11 17 1014.4 1014.2 0.4
21/02:00pm 27.0 27.4 20.6 68 4.2 ESE 19 30 10 16 1014.6 1014.4 0.2
21/01:30pm 25.7 25.6 20.7 74 3.3 SE 22 33 12 18 1014.7 1014.6 0.2
21/01:00pm 27.3 28.0 22.3 74 3.4 ESE 22 37 12 20 1015.1 1015.0 0.2
21/12:30pm 26.6 26.8 21.4 73 3.5 ESE 22 33 12 18 1015.3 1015.2 0.2
21/12:00pm 25.1 26.9 22.6 86 1.7 SE 17 28 9 15 1015.7 1015.6 0.2
21/11:40am 25.6 26.4 21.7 79 2.6 SE 20 33 11 18 1015.8 1015.7 0.2
21/11:30am 26.1 26.3 22.0 78 2.7 SE 24 35 13 19 1016.0 1015.9 0.0
21/11:00am 24.9 25.1 21.4 81 2.3 SE 22 35 12 19 1016.2 1016.1 0.0
21/10:38am 25.3 25.7 21.8 81 2.3 SE 22 35 12 19 1016.3 1016.2 0.0
21/10:30am 25.5 25.4 21.4 78 2.7 SE 24 39 13 21 1016.3 1016.2 0.0
21/10:00am 26.5 27.1 22.1 77 3.0 SE 22 39 12 21 1016.3 1016.2 0.0
21/09:53am 25.8 25.2 21.2 76 3.0 SE 26 39 14 21 1016.3 1016.2 0.0
21/09:42am 26.1 27.0 22.0 78 2.7 SE 20 35 11 19 1016.2 1016.1 0.0
21/09:40am 26.1 27.1 22.2 79 2.6 SE 20 35 11 19 1016.2 1016.1 0.0
21/09:30am 25.7 26.0 21.6 78 2.7 SE 22 33 12 18 1016.2 1016.1 0.0
21/09:20am 25.1 25.7 21.4 80 2.5 SE 20 33 11 18 1016.3 1016.2 0.0
21/09:16am 25.7 26.5 21.8 79 2.6 SE 20 33 11 18 1016.3 1016.2 0.0
21/09:00am 25.1 26.6 22.0 83 2.1 SE 17 33 9 18 1016.3 1016.2 4.2
21/08:30am 23.9 26.3 22.3 91 1.1 SE 13 19 7 10 1016.0 1015.9 4.2
21/08:03am 23.6 26.1 22.4 93 0.8 SSE 13 20 7 11 1015.9 1015.8 4.2
21/08:00am 23.5 26.0 22.5 94 0.7 SSE 13 20 7 11 1015.9 1015.8 4.2
21/07:57am 23.3 25.7 22.3 94 0.7 SSE 13 20 7 11 1015.8 1015.7 4.2
21/07:48am 23.0 25.9 22.5 97 0.3 SE 11 15 6 8 1015.9 1015.8 4.2
21/07:31am 22.3 24.3 21.5 95 0.5 SE 13 19 7 10 1016.1 1016.0 4.0
21/07:30am 22.3 23.9 21.5 95 0.5 SE 15 20 8 11 1016.1 1016.0 4.0
21/07:00am 22.3 24.2 21.3 94 0.7 SSE 13 22 7 12 1016.1 1016.0 3.4
21/06:30am 22.2 24.6 21.5 96 0.5 SSE 11 17 6 9 1015.9 1015.8 3.4
21/06:02am 22.3 23.9 21.5 95 0.5 SSE 15 24 8 13 1015.7 1015.6 3.4
21/06:00am 22.3 23.5 21.5 95 0.5 SSE 17 24 9 13 1015.7 1015.6 3.4
21/05:48am 22.3 23.6 21.6 96 0.5 SSE 17 28 9 15 1015.4 1015.3 3.4
21/05:30am 22.2 23.8 21.5 96 0.5 SSE 15 20 8 11 1015.3 1015.2 3.4
21/05:00am 22.4 24.2 21.9 97 0.3 SE 15 22 8 12 1014.9 1014.8 3.4
21/04:30am 22.4 24.6 21.9 97 0.3 SSE 13 19 7 10 1014.6 1014.4 3.2
21/04:00am 22.4 25.4 21.9 97 0.3 SE 9 13 5 7 1014.6 1014.4 2.8
21/03:30am 22.4 24.8 21.6 95 0.5 SSE 11 15 6 8 1014.4 1014.2 1.4
21/03:00am 22.4 24.3 21.4 94 0.7 SSE 13 20 7 11 1014.6 1014.4 1.4
21/02:58am 22.4 24.3 21.4 94 0.7 SSE 13 19 7 10 1014.7 1014.6 1.4
21/02:39am 22.5 24.8 21.3 93 0.8 SSE 11 15 6 8 1015.0 1014.9 1.4
21/02:30am 22.5 24.4 21.3 93 0.8 SSE 13 20 7 11 1015.0 1014.9 1.2
21/02:00am 22.7 24.6 21.3 92 0.9 SE 13 19 7 10 1015.3 1015.2 1.2
21/01:30am 23.1 24.7 21.4 90 1.1 SE 15 20 8 11 1015.4 1015.3 1.0
21/01:00am 23.0 25.4 21.5 91 1.0 SE 11 22 6 12 1015.6 1015.5 1.0

Other formats

Comma delimited format used in spreadsheet applications
http://www.bom.gov.au/fwo/IDQ60801/IDQ60801.94370.axf

JavaScript Object Notation format (JSON) in row-major order
http://www.bom.gov.au/fwo/IDQ60801/IDQ60801.94370.json

Data quality

Most of these data are generated automatically and are frequently updated. Quality checks on data are not normally performed. It is possible for incorrect values to appear. Refer to information at About Latest Weather Observations and please check the disclaimer before using these data.